KHSV/HSV METAR and TAF weather

Enter ICAO airport designator
Station Type Date Time Source
KHSV METAR 2020/07/11 03:53 UTC NOAA

KHSV 110353Z 35005KT 10SM FEW070 26/22 A2996 RMK AO2 SLP137 T02610217 $


Station Type Date Time Source
KHSV Decoded METAR 2020/07/11 03:53 UTC NOAA

HUNTSVILLE INTERNATIONAL JONES FIELD, AL, United States (KHSV) 34-39N 086-47W 191M
Jul 10, 2020 - 11:53 PM EDT / 2020.07.11 0353 UTC
Wind: from the N (350 degrees) at 6 MPH (5 KT):0
Visibility: 10 mile(s):0
Sky conditions: mostly clear
Temperature: 79.0 F (26.1 C)
Dew Point: 71.1 F (21.7 C)
Relative Humidity: 76%
Pressure (altimeter): 29.96 in. Hg (1014 hPa)
ob: KHSV 110353Z 35005KT 10SM FEW070 26/22 A2996 RMK AO2 SLP137 T02610217
cycle: 4

Station Type Date Time Source
KHSV TAF 2020/07/10 18:22 UTC NOAA

TAF KHSV 101720Z 1018/1118 25007KT P6SM FEW040
FM102000 29009G14KT P6SM FEW050
FM110000 33004KT P6SM SKC

Example: see airport list